createdAt,value
2022-08-11T00:00:18.437Z,53.44
2022-08-11T00:03:26.564Z,53.42
2022-08-11T00:08:53.420Z,53.75
2022-08-11T00:11:21.548Z,53.74
2022-08-11T00:14:17.554Z,53.95
2022-08-11T00:18:07.125Z,54.08
2022-08-11T00:20:39.397Z,54.14
2022-08-11T00:23:08.116Z,54.41
2022-08-11T00:25:51.259Z,54.58
2022-08-11T00:28:36.619Z,54.66
2022-08-11T00:31:34.262Z,54.67
2022-08-11T00:34:12.365Z,54.64
2022-08-11T00:36:52.848Z,54.85
2022-08-11T00:39:36.160Z,54.89
2022-08-11T00:42:18.497Z,54.98
2022-08-11T00:45:05.474Z,55.26
2022-08-11T00:48:03.486Z,55.55
2022-08-11T00:50:58.857Z,55.71
2022-08-11T00:53:49.018Z,55.64
2022-08-11T00:56:49.574Z,55.67
2022-08-11T00:59:37.706Z,55.97
2022-08-11T01:02:23.417Z,56.07
2022-08-11T01:05:35.778Z,56.29
2022-08-11T01:08:24.481Z,56.39
2022-08-11T01:11:02.114Z,56.29
2022-08-11T01:13:36.947Z,56.22
2022-08-11T01:16:23.674Z,56.54
2022-08-11T01:18:55.116Z,56.40
2022-08-11T01:21:40.838Z,56.39
2022-08-11T01:24:22.478Z,56.19
2022-08-11T01:27:19.388Z,56.21
2022-08-11T01:30:05.435Z,56.04
2022-08-11T01:32:47.899Z,56.03
2022-08-11T01:35:31.482Z,55.97
2022-08-11T01:38:20.803Z,55.98
2022-08-11T01:40:59.019Z,55.96
2022-08-11T01:43:57.284Z,56.07
2022-08-11T01:46:54.244Z,55.98
2022-08-11T01:50:09.862Z,56.15
2022-08-11T01:53:03.201Z,56.57
2022-08-11T01:55:39.634Z,56.75
2022-08-11T01:58:43.507Z,56.85
2022-08-11T02:01:17.151Z,56.86
2022-08-11T02:04:06.124Z,57.17
2022-08-11T02:07:03.382Z,57.28
2022-08-11T02:09:51.968Z,57.65
2022-08-11T02:12:43.792Z,57.74
2022-08-11T02:15:35.115Z,58.06
2022-08-11T02:18:07.598Z,58.19
2022-08-11T02:21:11.687Z,58.39
2022-08-11T02:24:05.449Z,58.26
2022-08-11T02:27:05.200Z,58.49
2022-08-11T02:29:34.155Z,58.60
2022-08-11T02:32:32.368Z,58.69
2022-08-11T02:35:14.087Z,58.79
2022-08-11T02:38:11.076Z,58.78
2022-08-11T02:41:00.886Z,58.88
2022-08-11T02:43:27.925Z,58.98
2022-08-11T02:46:06.467Z,59.06
2022-08-11T02:49:14.702Z,59.27
2022-08-11T02:51:55.093Z,59.47
2022-08-11T02:54:22.692Z,59.68
2022-08-11T02:56:51.752Z,59.84
2022-08-11T02:59:49.726Z,60.02
2022-08-11T03:02:28.974Z,60.19
2022-08-11T03:05:07.079Z,60.24
2022-08-11T03:08:04.849Z,60.18
2022-08-11T03:11:10.955Z,60.28
2022-08-11T03:14:16.159Z,60.47
2022-08-11T03:16:50.251Z,60.43
2022-08-11T03:19:37.376Z,60.34
2022-08-11T03:22:47.961Z,60.18
2022-08-11T03:25:56.424Z,59.83
2022-08-11T03:28:29.667Z,59.54
2022-08-11T03:31:08.388Z,59.41
2022-08-11T03:37:56.018Z,59.09
2022-08-11T03:41:00.987Z,59.10
2022-08-11T03:43:58.090Z,59.06
2022-08-11T03:46:44.882Z,59.32
2022-08-11T03:49:23.185Z,59.96
2022-08-11T03:51:54.868Z,60.37
2022-08-11T03:54:33.053Z,60.86
2022-08-11T03:57:25.865Z,60.90
2022-08-11T03:59:58.982Z,61.33
2022-08-11T04:02:34.983Z,61.38
2022-08-11T04:05:23.755Z,60.80
2022-08-11T04:08:12.033Z,59.95
2022-08-11T04:10:49.799Z,58.54
2022-08-11T04:13:49.576Z,57.73
2022-08-11T04:16:50.342Z,56.15
2022-08-11T04:19:53.317Z,54.31
2022-08-11T04:22:42.023Z,52.78
2022-08-11T04:25:34.663Z,51.13
2022-08-11T04:28:28.909Z,49.47
2022-08-11T04:31:50.755Z,48.16
2022-08-11T04:34:39.192Z,46.94
2022-08-11T04:37:34.818Z,45.09
2022-08-11T04:40:23.740Z,44.29
2022-08-11T04:43:28.226Z,43.31
2022-08-11T04:47:02.827Z,43.57
2022-08-11T04:53:28.434Z,43.25
2022-08-11T05:00:33.042Z,42.28
2022-08-11T05:03:21.691Z,41.66
2022-08-11T05:06:01.117Z,41.66
2022-08-11T05:09:31.418Z,41.81
2022-08-11T05:12:32.716Z,42.17
2022-08-11T05:18:31.154Z,42.64
2022-08-11T05:21:44.796Z,41.85
2022-08-11T05:24:47.382Z,40.72
2022-08-11T05:27:41.304Z,40.31
2022-08-11T05:30:46.182Z,40.18
2022-08-11T05:34:07.536Z,40.24
2022-08-11T05:36:52.234Z,40.44
2022-08-11T05:39:48.393Z,40.72
2022-08-11T05:42:43.878Z,40.31
2022-08-11T05:45:54.833Z,39.97
2022-08-11T05:48:54.951Z,40.23
2022-08-11T06:07:15.833Z,40.24
2022-08-11T06:10:10.749Z,40.21
2022-08-11T06:12:52.057Z,39.96
2022-08-11T06:15:22.255Z,39.74
2022-08-11T06:18:05.281Z,40.07
2022-08-11T06:20:45.773Z,40.71
2022-08-11T06:23:18.192Z,41.79
2022-08-11T06:25:56.942Z,42.73
2022-08-11T06:28:38.052Z,43.54
2022-08-11T06:31:12.055Z,43.95
2022-08-11T06:34:04.333Z,44.26
2022-08-11T06:36:44.253Z,44.43
2022-08-11T06:39:45.670Z,44.51
2022-08-11T06:42:31.360Z,44.67
2022-08-11T06:45:10.981Z,44.76
2022-08-11T06:47:42.247Z,44.92
2022-08-11T06:50:29.496Z,44.98
2022-08-11T06:52:59.376Z,45.11
2022-08-11T06:55:56.697Z,44.99
2022-08-11T06:58:52.278Z,45.04
2022-08-11T07:01:48.554Z,44.80
2022-08-11T07:04:28.417Z,44.96
2022-08-11T07:07:40.611Z,44.69
2022-08-11T07:10:37.192Z,44.50
2022-08-11T07:13:39.376Z,44.27
2022-08-11T07:16:24.326Z,44.21
2022-08-11T07:19:32.730Z,44.26
2022-08-11T07:22:37.052Z,43.89
2022-08-11T07:25:34.235Z,43.50
2022-08-11T07:28:38.413Z,43.28
2022-08-11T07:34:25.026Z,43.03
2022-08-11T07:37:00.351Z,42.92
2022-08-11T07:39:47.486Z,43.05
2022-08-11T07:42:19.927Z,42.91
2022-08-11T07:45:07.459Z,42.64
2022-08-11T07:48:01.640Z,42.32
2022-08-11T07:53:31.253Z,41.74
2022-08-11T07:55:59.508Z,41.41
2022-08-11T07:58:55.046Z,40.73
2022-08-11T08:01:44.003Z,40.44
2022-08-11T08:04:35.829Z,40.42
2022-08-11T08:07:24.200Z,40.32
2022-08-11T08:10:09.923Z,40.40
2022-08-11T08:13:00.299Z,40.31
2022-08-11T08:15:46.081Z,40.15
2022-08-11T08:18:25.949Z,39.93
2022-08-11T08:20:54.897Z,39.90
2022-08-11T08:23:35.153Z,39.88
2022-08-11T08:26:03.783Z,39.65
2022-08-11T08:28:32.748Z,39.31
2022-08-11T08:31:00.140Z,39.58
2022-08-11T08:33:30.469Z,39.22
2022-08-11T08:36:15.778Z,38.94
2022-08-11T08:38:48.956Z,38.77
2022-08-11T08:41:24.376Z,38.60
2022-08-11T08:43:53.407Z,38.44
2022-08-11T08:46:40.545Z,38.15
2022-08-11T08:49:09.286Z,38.38
2022-08-11T08:52:01.405Z,38.24
2022-08-11T08:54:28.579Z,38.15
2022-08-11T08:56:56.075Z,38.09
2022-08-11T08:59:25.712Z,37.98
2022-08-11T09:02:01.532Z,37.78
2022-08-11T09:04:29.502Z,37.64
2022-08-11T09:07:02.939Z,37.67
2022-08-11T09:09:35.028Z,37.75
2022-08-11T09:12:08.097Z,37.71
2022-08-11T09:14:59.610Z,37.53
2022-08-11T09:17:45.454Z,37.84
2022-08-11T09:20:22.138Z,37.56
2022-08-11T09:26:20.691Z,37.25
2022-08-11T09:28:49.573Z,37.27
2022-08-11T09:31:16.325Z,37.32
2022-08-11T09:33:46.051Z,37.28
2022-08-11T09:36:32.494Z,37.37
2022-08-11T09:39:25.137Z,37.36
2022-08-11T09:42:00.582Z,37.21
2022-08-11T09:44:51.169Z,36.89
2022-08-11T09:47:25.005Z,36.91
2022-08-11T09:49:55.871Z,37.23
2022-08-11T09:52:29.425Z,36.89
2022-08-11T09:54:59.646Z,36.67
2022-08-11T09:57:45.517Z,36.84
2022-08-11T10:00:14.575Z,36.48
2022-08-11T10:02:54.183Z,36.68
2022-08-11T10:05:43.430Z,36.57
2022-08-11T10:08:12.470Z,36.48
2022-08-11T10:10:48.258Z,36.26
2022-08-11T10:14:31.647Z,36.03
2022-08-11T10:16:15.534Z,35.91
2022-08-11T10:18:56.146Z,35.67
2022-08-11T10:21:33.974Z,36.01
2022-08-11T10:24:19.550Z,36.27
2022-08-11T10:26:54.239Z,36.45
2022-08-11T10:29:45.265Z,36.34
2022-08-11T10:32:57.910Z,35.98
2022-08-11T10:35:28.591Z,35.47
2022-08-11T10:38:06.518Z,35.67
2022-08-11T10:40:39.306Z,35.46
2022-08-11T10:43:10.160Z,34.66
2022-08-11T10:45:56.186Z,34.73
2022-08-11T10:48:24.591Z,34.43
2022-08-11T10:51:10.175Z,34.42
2022-08-11T10:54:02.745Z,34.05
2022-08-11T10:57:07.645Z,33.85
2022-08-11T10:59:37.826Z,33.72
2022-08-11T11:02:09.031Z,33.60
2022-08-11T11:04:38.755Z,33.72
2022-08-11T11:07:13.359Z,33.72
2022-08-11T11:09:50.712Z,33.32
2022-08-11T11:12:42.478Z,32.96
2022-08-11T11:15:29.160Z,32.94
2022-08-11T11:18:01.045Z,32.95
2022-08-11T11:20:34.463Z,32.64
2022-08-11T11:23:13.479Z,32.65
2022-08-11T11:26:14.956Z,32.38
2022-08-11T11:29:00.327Z,32.37
2022-08-11T11:31:26.728Z,32.17
2022-08-11T11:34:13.491Z,32.29
2022-08-11T11:36:52.257Z,32.41
2022-08-11T11:39:21.594Z,32.13
2022-08-11T11:41:52.602Z,31.28
2022-08-11T11:44:19.954Z,31.64
2022-08-11T11:46:47.010Z,31.86
2022-08-11T11:49:17.121Z,31.62
2022-08-11T11:51:49.916Z,31.57
2022-08-11T11:54:28.052Z,31.35
2022-08-11T11:56:55.824Z,31.18
2022-08-11T11:59:43.053Z,31.33
2022-08-11T12:02:12.708Z,30.72
2022-08-11T12:04:43.865Z,30.93
2022-08-11T12:07:30.090Z,30.62
2022-08-11T12:09:57.987Z,31.11
2022-08-11T12:12:44.331Z,31.04
2022-08-11T12:15:11.767Z,30.86
2022-08-11T12:17:39.097Z,30.69
2022-08-11T12:20:07.081Z,30.16
2022-08-11T12:23:14.705Z,29.98
2022-08-11T12:26:27.240Z,29.71
2022-08-11T12:29:00.567Z,29.73
2022-08-11T12:31:30.715Z,29.67
2022-08-11T12:34:01.836Z,29.71
2022-08-11T12:36:29.159Z,30.12
2022-08-11T12:38:55.923Z,30.18
2022-08-11T12:41:41.387Z,30.03
2022-08-11T12:44:29.128Z,29.88
2022-08-11T12:46:59.148Z,29.64
2022-08-11T12:49:46.269Z,29.42
2022-08-11T12:52:17.153Z,29.54
2022-08-11T12:54:53.779Z,29.42
2022-08-11T12:57:44.613Z,29.71
2022-08-11T13:00:30.586Z,29.98
2022-08-11T13:03:17.499Z,29.65
2022-08-11T13:05:46.383Z,29.98
2022-08-11T13:08:16.966Z,30.03
2022-08-11T13:11:03.312Z,29.82
2022-08-11T13:13:55.406Z,29.39
2022-08-11T13:16:31.071Z,29.04
2022-08-11T13:19:00.287Z,28.95
2022-08-11T13:21:27.861Z,28.86
2022-08-11T13:23:59.640Z,28.45
2022-08-11T13:26:43.383Z,28.84
2022-08-11T13:29:21.789Z,29.17
2022-08-11T13:31:49.401Z,28.97
2022-08-11T13:34:17.656Z,29.22
2022-08-11T13:36:45.260Z,29.47
2022-08-11T13:39:13.575Z,29.69
2022-08-11T13:41:43.373Z,29.82
2022-08-11T13:44:12.641Z,29.88
2022-08-11T13:46:45.684Z,30.10
2022-08-11T13:49:15.487Z,30.06
2022-08-11T13:51:42.928Z,29.86
2022-08-11T13:54:10.643Z,29.61
2022-08-11T13:56:41.358Z,29.46
2022-08-11T13:59:10.833Z,29.66
2022-08-11T14:02:19.407Z,29.73
2022-08-11T14:04:44.268Z,29.50
2022-08-11T14:07:14.060Z,29.33
2022-08-11T14:09:42.988Z,29.60
2022-08-11T14:12:32.582Z,29.94
2022-08-11T14:15:08.086Z,30.24
2022-08-11T14:17:48.987Z,30.27
2022-08-11T14:20:38.420Z,30.20
2022-08-11T14:23:04.825Z,30.36
2022-08-11T14:26:00.564Z,30.16
2022-08-11T14:28:31.903Z,30.24
2022-08-11T14:31:04.609Z,30.15
2022-08-11T14:34:00.751Z,29.92
2022-08-11T14:36:20.063Z,29.65
2022-08-11T14:38:49.866Z,29.51
2022-08-11T14:41:36.196Z,29.68
2022-08-11T14:44:24.122Z,29.22
2022-08-11T14:47:23.209Z,28.79
2022-08-11T14:50:09.312Z,28.97
2022-08-11T14:52:44.110Z,29.34
2022-08-11T14:55:29.910Z,29.45
2022-08-11T14:57:57.303Z,29.39
2022-08-11T15:00:24.796Z,29.40
2022-08-11T15:03:09.563Z,29.24
2022-08-11T15:05:58.340Z,29.73
2022-08-11T15:08:45.539Z,29.90
2022-08-11T15:11:31.331Z,29.86
2022-08-11T15:13:59.458Z,29.87
2022-08-11T15:16:45.331Z,29.94
2022-08-11T15:19:12.623Z,29.73
2022-08-11T15:21:57.598Z,29.83
2022-08-11T15:24:24.500Z,29.82
2022-08-11T15:27:13.136Z,29.92
2022-08-11T15:29:59.448Z,30.20
2022-08-11T15:32:45.889Z,30.35
2022-08-11T15:35:33.778Z,29.98
2022-08-11T15:38:11.055Z,29.89
2022-08-11T15:40:57.925Z,29.99
2022-08-11T15:43:45.782Z,29.94
2022-08-11T15:46:32.492Z,30.03
2022-08-11T15:49:01.905Z,30.00
2022-08-11T15:51:28.275Z,30.20
2022-08-11T15:53:57.774Z,30.48
2022-08-11T15:56:25.377Z,30.38
2022-08-11T15:59:42.948Z,30.41
2022-08-11T16:02:18.539Z,30.26
2022-08-11T16:04:45.915Z,30.22
2022-08-11T16:07:16.686Z,30.04
2022-08-11T16:10:01.196Z,30.23
2022-08-11T16:12:32.398Z,30.11
2022-08-11T16:15:20.348Z,29.57
2022-08-11T16:17:49.777Z,29.46
2022-08-11T16:20:18.861Z,29.26
2022-08-11T16:23:01.513Z,29.56
2022-08-11T16:27:02.079Z,29.75
2022-08-11T16:28:20.037Z,29.92
2022-08-11T16:30:47.101Z,29.98
2022-08-11T16:33:48.447Z,30.02
2022-08-11T16:36:21.312Z,30.19
2022-08-11T16:38:48.887Z,30.19
2022-08-11T16:41:36.616Z,30.40
2022-08-11T16:44:36.864Z,30.46
2022-08-11T16:47:11.352Z,30.55
2022-08-11T16:49:42.396Z,30.59
2022-08-11T16:52:12.307Z,30.60
2022-08-11T16:54:40.775Z,30.92
2022-08-11T16:57:43.488Z,30.83
2022-08-11T17:00:12.557Z,31.06
2022-08-11T17:03:03.293Z,31.19
2022-08-11T17:05:53.825Z,31.48
2022-08-11T17:08:57.913Z,31.71
2022-08-11T17:11:48.913Z,31.80
2022-08-11T17:14:35.840Z,32.01
2022-08-11T17:17:10.741Z,32.17
2022-08-11T17:20:42.820Z,32.32
2022-08-11T17:22:47.624Z,32.49
2022-08-11T17:25:15.471Z,32.57
2022-08-11T17:27:42.782Z,32.69
2022-08-11T17:30:10.212Z,32.81
2022-08-11T17:33:00.835Z,32.97
2022-08-11T17:35:32.838Z,33.07
2022-08-11T17:37:59.842Z,33.28
2022-08-11T17:40:27.871Z,33.48
2022-08-11T17:43:14.386Z,33.67
2022-08-11T17:46:00.838Z,33.97
2022-08-11T17:48:31.983Z,34.22
2022-08-11T17:51:03.976Z,34.36
2022-08-11T17:54:15.982Z,34.68
2022-08-11T17:57:20.481Z,34.70
2022-08-11T17:59:52.281Z,34.82
2022-08-11T18:02:39.507Z,34.96
2022-08-11T18:05:10.834Z,34.92
2022-08-11T18:08:01.805Z,34.96
2022-08-11T18:10:48.079Z,35.10
2022-08-11T18:13:35.025Z,35.19
2022-08-11T18:16:22.029Z,35.19
2022-08-11T18:19:06.841Z,35.41
2022-08-11T18:22:14.176Z,35.62
2022-08-11T18:25:08.346Z,35.77
2022-08-11T18:27:59.775Z,35.98
2022-08-11T18:30:45.997Z,36.05
2022-08-11T18:34:03.995Z,36.16
2022-08-11T18:36:39.816Z,36.36
2022-08-11T18:39:27.681Z,36.65
2022-08-11T18:42:14.289Z,36.75
2022-08-11T18:45:05.669Z,36.80
2022-08-11T18:47:51.038Z,36.94
2022-08-11T18:50:41.260Z,36.93
2022-08-11T18:53:32.387Z,37.29
2022-08-11T18:56:20.416Z,37.37
2022-08-11T18:59:06.305Z,37.58
2022-08-11T19:01:54.537Z,37.62
2022-08-11T19:04:40.976Z,37.73
2022-08-11T19:07:26.895Z,37.76
2022-08-11T19:10:13.385Z,37.98
2022-08-11T19:13:00.718Z,38.13
2022-08-11T19:15:46.903Z,38.19
2022-08-11T19:18:40.065Z,38.39
2022-08-11T19:21:26.748Z,38.45
2022-08-11T19:24:14.321Z,38.58
2022-08-11T19:27:00.508Z,38.72
2022-08-11T19:30:04.804Z,38.92
2022-08-11T19:32:52.438Z,38.99
2022-08-11T19:35:37.785Z,39.18
2022-08-11T19:38:23.696Z,39.34
2022-08-11T19:41:10.148Z,39.45
2022-08-11T19:43:57.969Z,39.66
2022-08-11T19:46:55.856Z,40.03
2022-08-11T19:49:51.323Z,40.27
2022-08-11T19:52:36.929Z,40.43
2022-08-11T19:55:23.681Z,40.48
2022-08-11T19:58:08.843Z,40.64
2022-08-11T20:00:54.087Z,40.88
2022-08-11T20:03:40.024Z,41.01
2022-08-11T20:06:26.297Z,41.21
2022-08-11T20:09:14.065Z,41.22
2022-08-11T20:12:01.248Z,41.23
2022-08-11T20:14:50.052Z,41.39
2022-08-11T20:17:36.400Z,41.66
2022-08-11T20:20:24.088Z,41.95
2022-08-11T20:23:13.341Z,42.23
2022-08-11T20:26:27.668Z,42.30
2022-08-11T20:29:26.774Z,42.38
2022-08-11T20:32:19.541Z,42.68
2022-08-11T20:35:49.903Z,42.90
2022-08-11T20:39:11.674Z,43.18
2022-08-11T20:42:12.039Z,43.45
2022-08-11T20:45:06.846Z,43.62
2022-08-11T20:48:14.842Z,44.04
2022-08-11T20:51:10.145Z,43.97
2022-08-11T20:54:38.417Z,44.17
2022-08-11T20:58:25.514Z,44.41
2022-08-11T21:01:24.258Z,44.57
2022-08-11T21:04:34.279Z,44.84
2022-08-11T21:07:55.467Z,44.93
2022-08-11T21:14:09.869Z,45.15
2022-08-11T21:16:56.635Z,45.38
2022-08-11T21:19:59.752Z,45.34
2022-08-11T21:22:59.158Z,45.29
2022-08-11T21:26:11.407Z,45.39
2022-08-11T21:28:57.884Z,45.55
2022-08-11T21:31:43.779Z,45.66
2022-08-11T21:34:34.552Z,45.76
2022-08-11T21:37:20.079Z,45.89
2022-08-11T21:40:06.808Z,46.04
2022-08-11T21:42:54.823Z,46.23
2022-08-11T21:45:40.617Z,46.34
2022-08-11T21:48:29.697Z,46.35
2022-08-11T21:51:14.972Z,46.38
2022-08-11T21:54:00.371Z,46.44
2022-08-11T21:56:45.510Z,46.75
2022-08-11T21:59:34.648Z,46.85
2022-08-11T22:02:19.840Z,47.18
2022-08-11T22:05:05.722Z,47.49
2022-08-11T22:07:51.688Z,47.68
2022-08-11T22:10:41.855Z,47.67
2022-08-11T22:13:30.577Z,47.70
2022-08-11T22:16:16.673Z,48.04
2022-08-11T22:19:02.563Z,48.22
2022-08-11T22:22:03.277Z,48.19
2022-08-11T22:24:50.546Z,48.55
2022-08-11T22:27:36.035Z,48.74
2022-08-11T22:30:21.047Z,49.09
2022-08-11T22:33:07.674Z,49.34
2022-08-11T22:35:53.441Z,49.48
2022-08-11T22:38:38.621Z,49.60
2022-08-11T22:41:25.253Z,49.86
2022-08-11T22:44:13.027Z,50.14
2022-08-11T22:47:00.283Z,50.21
2022-08-11T22:49:57.420Z,50.28
2022-08-11T22:52:44.759Z,50.26
2022-08-11T22:55:39.672Z,50.50
2022-08-11T22:58:24.868Z,50.50
2022-08-11T23:01:10.373Z,50.76
2022-08-11T23:03:55.652Z,50.96
2022-08-11T23:06:41.540Z,50.88
2022-08-11T23:09:27.642Z,50.93
2022-08-11T23:12:13.750Z,51.01
2022-08-11T23:15:01.724Z,51.37
2022-08-11T23:18:00.869Z,51.78
2022-08-11T23:20:58.508Z,51.68
2022-08-11T23:23:46.913Z,51.73
2022-08-11T23:26:32.725Z,52.10
2022-08-11T23:29:18.244Z,52.38
2022-08-11T23:32:04.008Z,52.03
2022-08-11T23:35:04.738Z,52.68
2022-08-11T23:37:59.762Z,53.24
2022-08-11T23:40:45.584Z,53.45
2022-08-11T23:43:37.969Z,53.41
2022-08-11T23:46:24.230Z,53.85
2022-08-11T23:49:11.879Z,54.16
2022-08-11T23:51:58.031Z,54.27
2022-08-11T23:54:55.868Z,53.91
2022-08-11T23:57:47.682Z,54.59
